sensor_id;sensor_type;location;lat;lon;timestamp;pressure;altitude;pressure_sealevel;temperature;humidity
41102;BME280;26845;50.190;19.178;2022-09-13T00:01:22;98580.56;;;9.98;76.10
41102;BME280;26845;50.190;19.178;2022-09-13T00:03:48;98584.95;;;9.90;76.08
41102;BME280;26845;50.190;19.178;2022-09-13T00:06:16;98588.10;;;9.75;76.25
41102;BME280;26845;50.190;19.178;2022-09-13T00:08:44;98590.31;;;9.64;76.39
41102;BME280;26845;50.190;19.178;2022-09-13T00:11:15;98586.94;;;9.56;76.77
41102;BME280;26845;50.190;19.178;2022-09-13T00:13:43;98586.48;;;9.52;76.88
41102;BME280;26845;50.190;19.178;2022-09-13T00:16:10;98590.07;;;9.52;77.04
41102;BME280;26845;50.190;19.178;2022-09-13T00:18:38;98586.84;;;9.48;76.87
41102;BME280;26845;50.190;19.178;2022-09-13T00:21:06;98588.05;;;9.44;76.94
41102;BME280;26845;50.190;19.178;2022-09-13T00:23:36;98578.67;;;9.42;77.09
41102;BME280;26845;50.190;19.178;2022-09-13T00:26:05;98578.84;;;9.46;77.17
41102;BME280;26845;50.190;19.178;2022-09-13T00:28:36;98578.79;;;9.49;76.99
41102;BME280;26845;50.190;19.178;2022-09-13T00:31:03;98585.73;;;9.49;76.90
41102;BME280;26845;50.190;19.178;2022-09-13T00:33:31;98580.42;;;9.50;77.05
41102;BME280;26845;50.190;19.178;2022-09-13T00:35:58;98574.88;;;9.50;77.15
41102;BME280;26845;50.190;19.178;2022-09-13T00:38:26;98571.22;;;9.52;77.16
41102;BME280;26845;50.190;19.178;2022-09-13T00:40:52;98569.83;;;9.52;77.08
41102;BME280;26845;50.190;19.178;2022-09-13T00:43:20;98569.44;;;9.56;77.34
41102;BME280;26845;50.190;19.178;2022-09-13T00:45:47;98561.63;;;9.58;77.38
41102;BME280;26845;50.190;19.178;2022-09-13T00:48:21;98563.59;;;9.57;77.36
41102;BME280;26845;50.190;19.178;2022-09-13T00:50:49;98561.63;;;9.58;77.34
41102;BME280;26845;50.190;19.178;2022-09-13T00:53:21;98561.81;;;9.61;77.53
41102;BME280;26845;50.190;19.178;2022-09-13T00:56:05;98560.12;;;9.63;77.34
41102;BME280;26845;50.190;19.178;2022-09-13T00:58:33;98562.56;;;9.64;77.34
41102;BME280;26845;50.190;19.178;2022-09-13T01:01:12;98555.63;;;9.64;77.33
41102;BME280;26845;50.190;19.178;2022-09-13T01:03:40;98563.13;;;9.64;77.24
41102;BME280;26845;50.190;19.178;2022-09-13T01:06:09;98563.41;;;9.65;77.21
41102;BME280;26845;50.190;19.178;2022-09-13T01:08:38;98564.10;;;9.59;76.98
41102;BME280;26845;50.190;19.178;2022-09-13T01:11:10;98562.27;;;9.55;77.13
41102;BME280;26845;50.190;19.178;2022-09-13T01:13:39;98568.69;;;9.53;77.16
41102;BME280;26845;50.190;19.178;2022-09-13T01:16:06;98557.98;;;9.49;77.08
41102;BME280;26845;50.190;19.178;2022-09-13T01:18:33;98559.73;;;9.44;77.17
41102;BME280;26845;50.190;19.178;2022-09-13T01:23:57;98568.84;;;9.36;77.07
41102;BME280;26845;50.190;19.178;2022-09-13T01:32:30;98570.52;;;9.23;76.98
41102;BME280;26845;50.190;19.178;2022-09-13T01:40:34;98565.21;;;9.24;77.18
41102;BME280;26845;50.190;19.178;2022-09-13T01:43:32;98561.20;;;9.19;77.04
41102;BME280;26845;50.190;19.178;2022-09-13T01:46:17;98554.56;;;9.18;77.16
41102;BME280;26845;50.190;19.178;2022-09-13T01:54:17;98552.94;;;9.17;77.10
41102;BME280;26845;50.190;19.178;2022-09-13T01:59:33;98542.31;;;9.08;77.33
41102;BME280;26845;50.190;19.178;2022-09-13T02:02:03;98536.86;;;9.05;77.36
41102;BME280;26845;50.190;19.178;2022-09-13T02:04:34;98541.50;;;9.07;77.51
41102;BME280;26845;50.190;19.178;2022-09-13T02:07:24;98542.08;;;9.07;77.32
41102;BME280;26845;50.190;19.178;2022-09-13T02:09:46;98537.22;;;9.01;77.35
41102;BME280;26845;50.190;19.178;2022-09-13T02:12:19;98540.02;;;8.87;77.06
41102;BME280;26845;50.190;19.178;2022-09-13T02:14:55;98532.44;;;8.79;77.22
41102;BME280;26845;50.190;19.178;2022-09-13T02:17:24;98528.91;;;8.76;77.16
41102;BME280;26845;50.190;19.178;2022-09-13T02:20:01;98532.25;;;8.75;77.37
41102;BME280;26845;50.190;19.178;2022-09-13T02:22:29;98530.63;;;8.74;77.35
41102;BME280;26845;50.190;19.178;2022-09-13T02:24:59;98524.89;;;8.71;77.30
41102;BME280;26845;50.190;19.178;2022-09-13T02:27:29;98523.05;;;8.66;77.38
41102;BME280;26845;50.190;19.178;2022-09-13T02:29:59;98519.24;;;8.62;77.38
41102;BME280;26845;50.190;19.178;2022-09-13T02:32:31;98525.11;;;8.61;77.65
41102;BME280;26845;50.190;19.178;2022-09-13T02:37:57;98515.36;;;8.63;77.52
41102;BME280;26845;50.190;19.178;2022-09-13T02:40:34;98507.92;;;8.61;77.54
41102;BME280;26845;50.190;19.178;2022-09-13T02:43:04;98505.09;;;8.64;77.80
41102;BME280;26845;50.190;19.178;2022-09-13T02:45:32;98504.80;;;8.65;77.62
41102;BME280;26845;50.190;19.178;2022-09-13T02:48:05;98509.49;;;8.65;77.77
41102;BME280;26845;50.190;19.178;2022-09-13T02:50:47;98496.73;;;8.66;77.91
41102;BME280;26845;50.190;19.178;2022-09-13T02:59:05;98500.06;;;8.66;77.91
41102;BME280;26845;50.190;19.178;2022-09-13T03:01:33;98499.50;;;8.66;77.92
41102;BME280;26845;50.190;19.178;2022-09-13T03:04:01;98499.25;;;8.65;77.90
41102;BME280;26845;50.190;19.178;2022-09-13T03:06:28;98492.33;;;8.65;77.85
41102;BME280;26845;50.190;19.178;2022-09-13T03:08:56;98484.08;;;8.63;77.81
41102;BME280;26845;50.190;19.178;2022-09-13T03:19:49;98488.88;;;8.46;77.67
41102;BME280;26845;50.190;19.178;2022-09-13T03:25:24;98488.83;;;8.21;77.78
41102;BME280;26845;50.190;19.178;2022-09-13T03:30:35;98479.42;;;8.19;78.39
41102;BME280;26845;50.190;19.178;2022-09-13T03:33:19;98475.27;;;8.19;78.35
41102;BME280;26845;50.190;19.178;2022-09-13T03:38:46;98471.89;;;8.22;78.58
41102;BME280;26845;50.190;19.178;2022-09-13T03:41:20;98478.52;;;8.24;78.71
41102;BME280;26845;50.190;19.178;2022-09-13T03:43:49;98470.11;;;8.29;78.87
41102;BME280;26845;50.190;19.178;2022-09-13T03:46:20;98474.20;;;8.31;78.89
41102;BME280;26845;50.190;19.178;2022-09-13T03:48:59;98470.54;;;8.33;79.01
41102;BME280;26845;50.190;19.178;2022-09-13T03:51:27;98471.58;;;8.38;79.20
41102;BME280;26845;50.190;19.178;2022-09-13T03:53:54;98476.19;;;8.42;79.40
41102;BME280;26845;50.190;19.178;2022-09-13T03:56:27;98471.36;;;8.48;79.43
41102;BME280;26845;50.190;19.178;2022-09-13T03:58:54;98474.30;;;8.54;79.54
41102;BME280;26845;50.190;19.178;2022-09-13T04:01:21;98473.62;;;8.60;79.47
41102;BME280;26845;50.190;19.178;2022-09-13T04:03:49;98475.19;;;8.63;79.47
41102;BME280;26845;50.190;19.178;2022-09-13T04:06:16;98469.54;;;8.68;79.57
41102;BME280;26845;50.190;19.178;2022-09-13T04:08:42;98468.34;;;8.72;79.53
41102;BME280;26845;50.190;19.178;2022-09-13T04:11:09;98469.39;;;8.73;79.44
41102;BME280;26845;50.190;19.178;2022-09-13T04:13:36;98461.59;;;8.75;79.44
41102;BME280;26845;50.190;19.178;2022-09-13T04:16:03;98463.73;;;8.78;79.51
41102;BME280;26845;50.190;19.178;2022-09-13T04:18:32;98467.02;;;8.81;79.51
41102;BME280;26845;50.190;19.178;2022-09-13T04:20:59;98462.87;;;8.81;79.51
41102;BME280;26845;50.190;19.178;2022-09-13T04:23:27;98463.92;;;8.82;79.49
41102;BME280;26845;50.190;19.178;2022-09-13T04:25:59;98468.66;;;8.82;79.42
41102;BME280;26845;50.190;19.178;2022-09-13T04:28:27;98474.77;;;8.81;79.27
41102;BME280;26845;50.190;19.178;2022-09-13T04:30:53;98468.66;;;8.82;79.38
41102;BME280;26845;50.190;19.178;2022-09-13T04:33:20;98468.08;;;8.82;79.27
41102;BME280;26845;50.190;19.178;2022-09-13T04:35:46;98468.08;;;8.82;79.40
41102;BME280;26845;50.190;19.178;2022-09-13T04:38:13;98465.07;;;8.81;79.23
41102;BME280;26845;50.190;19.178;2022-09-13T04:40:39;98468.47;;;8.78;79.25
41102;BME280;26845;50.190;19.178;2022-09-13T04:43:06;98461.30;;;8.77;79.18
41102;BME280;26845;50.190;19.178;2022-09-13T04:45:35;98464.70;;;8.74;79.08
41102;BME280;26845;50.190;19.178;2022-09-13T04:48:03;98465.73;;;8.64;78.92
41102;BME280;26845;50.190;19.178;2022-09-13T04:50:29;98470.95;;;8.54;79.06
41102;BME280;26845;50.190;19.178;2022-09-13T04:52:56;98471.83;;;8.52;79.34
41102;BME280;26845;50.190;19.178;2022-09-13T04:55:22;98472.34;;;8.54;79.50
41102;BME280;26845;50.190;19.178;2022-09-13T04:57:53;98472.39;;;8.52;79.23
41102;BME280;26845;50.190;19.178;2022-09-13T05:00:21;98477.92;;;8.38;79.22
41102;BME280;26845;50.190;19.178;2022-09-13T05:02:48;98470.54;;;8.33;79.39
41102;BME280;26845;50.190;19.178;2022-09-13T05:05:14;98472.30;;;8.29;79.77
41102;BME280;26845;50.190;19.178;2022-09-13T05:07:41;98469.16;;;8.33;79.94
41102;BME280;26845;50.190;19.178;2022-09-13T05:10:07;98464.36;;;8.39;80.11
41102;BME280;26845;50.190;19.178;2022-09-13T05:12:34;98462.30;;;8.45;80.16
41102;BME280;26845;50.190;19.178;2022-09-13T05:15:01;98462.19;;;8.50;80.23
41102;BME280;26845;50.190;19.178;2022-09-13T05:17:28;98462.08;;;8.55;80.31
41102;BME280;26845;50.190;19.178;2022-09-13T05:19:55;98459.44;;;8.61;80.38
41102;BME280;26845;50.190;19.178;2022-09-13T05:22:21;98461.58;;;8.64;80.29
41102;BME280;26845;50.190;19.178;2022-09-13T05:24:48;98469.27;;;8.67;80.47
41102;BME280;26845;50.190;19.178;2022-09-13T05:27:14;98468.34;;;8.72;80.54
41102;BME280;26845;50.190;19.178;2022-09-13T05:29:42;98464.19;;;8.72;80.58
41102;BME280;26845;50.190;19.178;2022-09-13T05:32:09;98467.89;;;8.78;80.71
41102;BME280;26845;50.190;19.178;2022-09-13T05:34:35;98473.89;;;8.83;80.79
41102;BME280;26845;50.190;19.178;2022-09-13T05:37:02;98469.56;;;8.91;80.80
41102;BME280;26845;50.190;19.178;2022-09-13T05:39:28;98467.85;;;8.92;80.72
41102;BME280;26845;50.190;19.178;2022-09-13T05:41:55;98466.80;;;8.91;80.75
41102;BME280;26845;50.190;19.178;2022-09-13T05:44:22;98466.80;;;8.91;80.95
41102;BME280;26845;50.190;19.178;2022-09-13T05:46:48;98465.02;;;8.95;81.04
41102;BME280;26845;50.190;19.178;2022-09-13T05:49:15;98464.09;;;8.99;81.12
41102;BME280;26845;50.190;19.178;2022-09-13T05:51:41;98464.21;;;9.06;81.19
41102;BME280;26845;50.190;19.178;2022-09-13T05:54:10;98469.06;;;9.11;81.26
41102;BME280;26845;50.190;19.178;2022-09-13T05:56:37;98469.60;;;9.22;81.29
41102;BME280;26845;50.190;19.178;2022-09-13T05:59:04;98471.38;;;9.29;81.36
41102;BME280;26845;50.190;19.178;2022-09-13T06:01:30;98469.73;;;9.39;81.49
41102;BME280;26845;50.190;19.178;2022-09-13T06:03:57;98477.71;;;9.52;81.72
41102;BME280;26845;50.190;19.178;2022-09-13T06:06:24;98471.06;;;9.62;81.77
41102;BME280;26845;50.190;19.178;2022-09-13T06:08:55;98471.38;;;9.72;81.79
41102;BME280;26845;50.190;19.178;2022-09-13T06:11:22;98471.58;;;9.84;81.87
41102;BME280;26845;50.190;19.178;2022-09-13T06:13:50;98462.33;;;9.97;82.01
41102;BME280;26845;50.190;19.178;2022-09-13T06:16:17;98463.20;;;10.15;82.17
41102;BME280;26845;50.190;19.178;2022-09-13T06:18:43;98466.86;;;10.33;82.31
41102;BME280;26845;50.190;19.178;2022-09-13T06:21:14;98462.98;;;10.51;82.41
41102;BME280;26845;50.190;19.178;2022-09-13T06:23:43;98464.55;;;10.72;82.98
41102;BME280;26845;50.190;19.178;2022-09-13T06:26:11;98466.67;;;10.93;82.95
41102;BME280;26845;50.190;19.178;2022-09-13T06:28:40;98464.30;;;11.15;84.32
41102;BME280;26845;50.190;19.178;2022-09-13T06:31:08;98462.24;;;11.67;85.72
41102;BME280;26845;50.190;19.178;2022-09-13T06:33:37;98462.53;;;12.07;84.83
41102;BME280;26845;50.190;19.178;2022-09-13T06:36:06;98463.34;;;12.37;83.66
41102;BME280;26845;50.190;19.178;2022-09-13T06:38:34;98462.09;;;12.55;83.85
41102;BME280;26845;50.190;19.178;2022-09-13T06:41:04;98467.09;;;12.77;83.41
41102;BME280;26845;50.190;19.178;2022-09-13T06:43:38;98466.77;;;12.78;82.52
41102;BME280;26845;50.190;19.178;2022-09-13T06:46:12;98464.84;;;12.70;82.86
41102;BME280;26845;50.190;19.178;2022-09-13T06:48:36;98465.62;;;12.86;82.95
41102;BME280;26845;50.190;19.178;2022-09-13T06:51:06;98461.85;;;12.96;83.21
41102;BME280;26845;50.190;19.178;2022-09-13T06:53:34;98468.55;;;13.10;83.09
41102;BME280;26845;50.190;19.178;2022-09-13T06:56:18;98462.15;;;13.31;83.39
41102;BME280;26845;50.190;19.178;2022-09-13T06:58:49;98462.45;;;13.50;82.57
41102;BME280;26845;50.190;19.178;2022-09-13T07:01:21;98455.95;;;13.52;82.33
41102;BME280;26845;50.190;19.178;2022-09-13T07:03:53;98449.58;;;13.64;82.71
41102;BME280;26845;50.190;19.178;2022-09-13T07:06:22;98448.56;;;13.75;82.14
41102;BME280;26845;50.190;19.178;2022-09-13T07:08:52;98446.33;;;13.80;82.18
41102;BME280;26845;50.190;19.178;2022-09-13T07:11:20;98453.20;;;13.83;82.01
41102;BME280;26845;50.190;19.178;2022-09-13T07:13:53;98448.91;;;13.91;81.69
41102;BME280;26845;50.190;19.178;2022-09-13T07:16:17;98449.52;;;14.03;81.55
41102;BME280;26845;50.190;19.178;2022-09-13T07:18:49;98444.63;;;14.06;81.35
41102;BME280;26845;50.190;19.178;2022-09-13T07:21:18;98438.79;;;14.05;81.67
41102;BME280;26845;50.190;19.178;2022-09-13T07:23:44;98434.59;;;14.11;81.48
41102;BME280;26845;50.190;19.178;2022-09-13T07:26:11;98436.58;;;14.17;81.21
41102;BME280;26845;50.190;19.178;2022-09-13T07:28:41;98432.86;;;14.37;81.41
41102;BME280;26845;50.190;19.178;2022-09-13T07:31:14;98434.83;;;14.49;80.84
41102;BME280;26845;50.190;19.178;2022-09-13T07:33:43;98434.62;;;14.54;81.03
41102;BME280;26845;50.190;19.178;2022-09-13T07:36:12;98435.43;;;14.55;81.33
41102;BME280;26845;50.190;19.178;2022-09-13T07:38:40;98429.88;;;14.77;82.01
41102;BME280;26845;50.190;19.178;2022-09-13T07:41:10;98431.73;;;14.85;81.36
41102;BME280;26845;50.190;19.178;2022-09-13T07:43:38;98434.26;;;14.96;81.10
41102;BME280;26845;50.190;19.178;2022-09-13T07:46:09;98426.95;;;15.14;80.95
41102;BME280;26845;50.190;19.178;2022-09-13T07:48:41;98420.02;;;15.29;80.60
41102;BME280;26845;50.190;19.178;2022-09-13T07:51:10;98423.55;;;15.64;80.84
41102;BME280;26845;50.190;19.178;2022-09-13T07:53:39;98422.08;;;15.83;78.93
41102;BME280;26845;50.190;19.178;2022-09-13T07:56:08;98419.98;;;15.95;79.02
41102;BME280;26845;50.190;19.178;2022-09-13T07:58:39;98419.39;;;15.96;79.39
41102;BME280;26845;50.190;19.178;2022-09-13T08:03:54;98426.33;;;16.08;77.81
41102;BME280;26845;50.190;19.178;2022-09-13T08:06:23;98420.47;;;16.23;79.31
41102;BME280;26845;50.190;19.178;2022-09-13T08:08:51;98419.42;;;16.47;78.37
41102;BME280;26845;50.190;19.178;2022-09-13T08:11:23;98422.86;;;16.56;77.56
41102;BME280;26845;50.190;19.178;2022-09-13T08:13:48;98421.28;;;16.59;77.29
41102;BME280;26845;50.190;19.178;2022-09-13T08:16:16;98419.92;;;16.69;77.68
41102;BME280;26845;50.190;19.178;2022-09-13T08:18:44;98416.05;;;16.93;77.94
41102;BME280;26845;50.190;19.178;2022-09-13T08:21:11;98416.26;;;17.33;76.99
41102;BME280;26845;50.190;19.178;2022-09-13T08:23:38;98418.78;;;17.18;75.00
41102;BME280;26845;50.190;19.178;2022-09-13T08:26:06;98421.30;;;17.04;76.24
41102;BME280;26845;50.190;19.178;2022-09-13T08:28:34;98420.78;;;17.18;76.45
41102;BME280;26845;50.190;19.178;2022-09-13T08:31:02;98414.58;;;17.28;75.81
41102;BME280;26845;50.190;19.178;2022-09-13T08:33:30;98406.10;;;17.47;76.66
41102;BME280;26845;50.190;19.178;2022-09-13T08:35:58;98409.77;;;17.81;76.39
41102;BME280;26845;50.190;19.178;2022-09-13T08:38:24;98404.42;;;18.08;76.04
41102;BME280;26845;50.190;19.178;2022-09-13T08:40:55;98407.45;;;18.23;74.06
41102;BME280;26845;50.190;19.178;2022-09-13T08:43:31;98399.05;;;18.13;74.33
41102;BME280;26845;50.190;19.178;2022-09-13T08:48:44;98404.31;;;18.41;74.53
41102;BME280;26845;50.190;19.178;2022-09-13T08:51:22;98395.51;;;18.42;73.61
41102;BME280;26845;50.190;19.178;2022-09-13T08:53:54;98383.86;;;18.57;73.33
41102;BME280;26845;50.190;19.178;2022-09-13T08:56:28;98384.52;;;18.74;74.35
41102;BME280;26845;50.190;19.178;2022-09-13T09:04:42;98380.89;;;18.47;72.30
41102;BME280;26845;50.190;19.178;2022-09-13T09:07:12;98380.23;;;18.70;72.92
41102;BME280;26845;50.190;19.178;2022-09-13T09:09:52;98384.69;;;19.01;70.55
41102;BME280;26845;50.190;19.178;2022-09-13T09:12:26;98381.44;;;19.16;66.42
41102;BME280;26845;50.190;19.178;2022-09-13T09:15:05;98372.19;;;19.16;70.21
41102;BME280;26845;50.190;19.178;2022-09-13T09:20:17;98368.73;;;19.50;68.44
41102;BME280;26845;50.190;19.178;2022-09-13T09:22:45;98375.20;;;19.54;69.86
41102;BME280;26845;50.190;19.178;2022-09-13T09:25:13;98368.81;;;19.61;68.89
41102;BME280;26845;50.190;19.178;2022-09-13T09:27:43;98376.64;;;19.58;67.77
41102;BME280;26845;50.190;19.178;2022-09-13T09:30:12;98380.27;;;19.38;66.02
41102;BME280;26845;50.190;19.178;2022-09-13T09:40:50;98368.25;;;19.61;66.65
41102;BME280;26845;50.190;19.178;2022-09-13T09:43:27;98356.71;;;19.57;65.87
41102;BME280;26845;50.190;19.178;2022-09-13T09:45:53;98352.91;;;19.59;64.71
41102;BME280;26845;50.190;19.178;2022-09-13T09:48:22;98360.05;;;19.49;65.20
41102;BME280;26845;50.190;19.178;2022-09-13T09:50:52;98347.14;;;19.44;66.56
41102;BME280;26845;50.190;19.178;2022-09-13T09:53:31;98355.80;;;19.45;65.99
41102;BME280;26845;50.190;19.178;2022-09-13T09:56:00;98353.81;;;19.49;64.01
41102;BME280;26845;50.190;19.178;2022-09-13T09:58:49;98347.05;;;19.37;65.42
41102;BME280;26845;50.190;19.178;2022-09-13T10:01:22;98345.04;;;19.38;66.35
41102;BME280;26845;50.190;19.178;2022-09-13T10:06:30;98331.83;;;19.86;65.60
41102;BME280;26845;50.190;19.178;2022-09-13T10:08:58;98317.80;;;20.21;66.39
41102;BME280;26845;50.190;19.178;2022-09-13T10:17:04;98331.58;;;20.33;63.16
41102;BME280;26845;50.190;19.178;2022-09-13T10:19:32;98321.15;;;20.41;64.50
41102;BME280;26845;50.190;19.178;2022-09-13T10:24:29;98317.03;;;20.59;63.15
41102;BME280;26845;50.190;19.178;2022-09-13T10:26:56;98320.47;;;20.58;59.56
41102;BME280;26845;50.190;19.178;2022-09-13T10:29:24;98319.05;;;20.27;61.16
41102;BME280;26845;50.190;19.178;2022-09-13T10:31:52;98320.09;;;20.05;61.28
41102;BME280;26845;50.190;19.178;2022-09-13T10:34:21;98320.62;;;19.93;60.73
41102;BME280;26845;50.190;19.178;2022-09-13T10:36:57;98319.47;;;20.02;62.08
41102;BME280;26845;50.190;19.178;2022-09-13T10:39:28;98317.04;;;20.31;61.87
41102;BME280;26845;50.190;19.178;2022-09-13T10:41:59;98313.93;;;20.51;61.68
41102;BME280;26845;50.190;19.178;2022-09-13T10:44:38;98309.97;;;20.59;60.19
41102;BME280;26845;50.190;19.178;2022-09-13T10:47:03;98313.22;;;20.61;58.84
41102;BME280;26845;50.190;19.178;2022-09-13T10:49:51;98306.16;;;20.61;62.17
41102;BME280;26845;50.190;19.178;2022-09-13T10:57:51;98303.98;;;21.34;61.06
41102;BME280;26845;50.190;19.178;2022-09-13T11:00:31;98294.96;;;21.60;59.88
41102;BME280;26845;50.190;19.178;2022-09-13T11:16:52;98282.75;;;22.93;57.98
41102;BME280;26845;50.190;19.178;2022-09-13T11:27:32;98267.73;;;22.56;54.99
41102;BME280;26845;50.190;19.178;2022-09-13T11:35:41;98261.25;;;22.59;56.19
41102;BME280;26845;50.190;19.178;2022-09-13T11:46:34;98230.20;;;22.81;55.50
41102;BME280;26845;50.190;19.178;2022-09-13T11:54:40;98202.00;;;22.97;52.24
41102;BME280;26845;50.190;19.178;2022-09-13T11:57:14;98212.34;;;22.92;52.93
41102;BME280;26845;50.190;19.178;2022-09-13T12:02:36;98195.80;;;22.83;50.86
41102;BME280;26845;50.190;19.178;2022-09-13T12:05:15;98186.98;;;22.66;54.00
41102;BME280;26845;50.190;19.178;2022-09-13T12:10:25;98191.31;;;22.52;51.88
41102;BME280;26845;50.190;19.178;2022-09-13T12:12:57;98194.69;;;22.04;49.89
41102;BME280;26845;50.190;19.178;2022-09-13T12:18:13;98184.08;;;21.50;52.47
41102;BME280;26845;50.190;19.178;2022-09-13T12:20:49;98181.63;;;21.27;52.33
41102;BME280;26845;50.190;19.178;2022-09-13T12:23:26;98179.80;;;21.14;54.12
41102;BME280;26845;50.190;19.178;2022-09-13T12:28:38;98168.30;;;21.13;53.31
41102;BME280;26845;50.190;19.178;2022-09-13T12:31:15;98167.88;;;21.00;54.58
41102;BME280;26845;50.190;19.178;2022-09-13T12:33:45;98175.53;;;20.85;54.24
41102;BME280;26845;50.190;19.178;2022-09-13T12:41:55;98170.13;;;20.37;54.68
41102;BME280;26845;50.190;19.178;2022-09-13T12:44:51;98169.70;;;20.32;54.59
41102;BME280;26845;50.190;19.178;2022-09-13T12:50:12;98149.14;;;20.28;55.74
41102;BME280;26845;50.190;19.178;2022-09-13T12:53:15;98153.20;;;20.37;55.32
41102;BME280;26845;50.190;19.178;2022-09-13T13:01:19;98150.59;;;20.42;55.87
41102;BME280;26845;50.190;19.178;2022-09-13T13:08:59;98135.88;;;20.42;56.40
41102;BME280;26845;50.190;19.178;2022-09-13T13:11:29;98149.80;;;20.45;56.18
41102;BME280;26845;50.190;19.178;2022-09-13T13:14:00;98144.77;;;20.52;56.41
41102;BME280;26845;50.190;19.178;2022-09-13T13:16:31;98146.08;;;20.72;56.95
41102;BME280;26845;50.190;19.178;2022-09-13T13:19:01;98139.44;;;21.03;56.10
41102;BME280;26845;50.190;19.178;2022-09-13T13:26:48;98138.03;;;21.10;55.07
41102;BME280;26845;50.190;19.178;2022-09-13T13:29:20;98121.70;;;20.95;54.73
41102;BME280;26845;50.190;19.178;2022-09-13T13:37:03;98120.27;;;20.84;54.83
41102;BME280;26845;50.190;19.178;2022-09-13T13:39:47;98117.64;;;20.78;55.45
41102;BME280;26845;50.190;19.178;2022-09-13T13:42:25;98125.89;;;20.77;55.74
41102;BME280;26845;50.190;19.178;2022-09-13T13:44:56;98125.70;;;20.76;55.31
41102;BME280;26845;50.190;19.178;2022-09-13T13:52:55;98120.36;;;20.39;55.42
41102;BME280;26845;50.190;19.178;2022-09-13T13:55:30;98114.48;;;20.24;56.17
41102;BME280;26845;50.190;19.178;2022-09-13T13:58:21;98116.47;;;20.23;56.70
41102;BME280;26845;50.190;19.178;2022-09-13T14:01:01;98111.81;;;20.17;56.53
41102;BME280;26845;50.190;19.178;2022-09-13T14:03:35;98104.95;;;20.11;56.51
41102;BME280;26845;50.190;19.178;2022-09-13T14:06:23;98102.96;;;20.15;56.36
41102;BME280;26845;50.190;19.178;2022-09-13T14:12:20;98099.31;;;20.15;56.84
41102;BME280;26845;50.190;19.178;2022-09-13T14:15:00;98090.05;;;20.14;56.91
41102;BME280;26845;50.190;19.178;2022-09-13T14:17:31;98087.22;;;20.14;56.98
41102;BME280;26845;50.190;19.178;2022-09-13T14:20:13;98087.22;;;20.14;57.45
41102;BME280;26845;50.190;19.178;2022-09-13T14:22:41;98090.09;;;20.25;57.61
41102;BME280;26845;50.190;19.178;2022-09-13T14:27:55;98075.63;;;20.44;58.14
41102;BME280;26845;50.190;19.178;2022-09-13T14:30:34;98072.41;;;20.50;57.58
41102;BME280;26845;50.190;19.178;2022-09-13T14:33:01;98072.16;;;20.34;57.89
41102;BME280;26845;50.190;19.178;2022-09-13T14:35:34;98070.94;;;20.32;58.07
41102;BME280;26845;50.190;19.178;2022-09-13T14:38:20;98080.81;;;20.25;58.05
41102;BME280;26845;50.190;19.178;2022-09-13T14:40:48;98078.38;;;20.16;57.86
41102;BME280;26845;50.190;19.178;2022-09-13T14:43:23;98079.14;;;20.09;58.06
41102;BME280;26845;50.190;19.178;2022-09-13T14:45:57;98069.27;;;20.02;58.02
41102;BME280;26845;50.190;19.178;2022-09-13T14:48:29;98076.48;;;19.92;58.00
41102;BME280;26845;50.190;19.178;2022-09-13T14:50:59;98068.60;;;19.88;58.42
41102;BME280;26845;50.190;19.178;2022-09-13T14:53:33;98072.27;;;19.92;58.52
41102;BME280;26845;50.190;19.178;2022-09-13T14:56:01;98064.61;;;19.96;58.41
41102;BME280;26845;50.190;19.178;2022-09-13T14:58:55;98066.20;;;19.90;58.78
41102;BME280;26845;50.190;19.178;2022-09-13T15:01:07;98061.17;;;19.90;58.87
41102;BME280;26845;50.190;19.178;2022-09-13T15:03:39;98058.92;;;19.86;58.30
41102;BME280;26845;50.190;19.178;2022-09-13T15:06:17;98063.52;;;19.77;58.39
41102;BME280;26845;50.190;19.178;2022-09-13T15:08:48;98067.31;;;19.68;59.04
41102;BME280;26845;50.190;19.178;2022-09-13T15:11:26;98056.27;;;19.72;59.11
41102;BME280;26845;50.190;19.178;2022-09-13T15:16:48;98046.89;;;19.58;59.30
41102;BME280;26845;50.190;19.178;2022-09-13T15:22:03;98037.98;;;19.48;59.46
41102;BME280;26845;50.190;19.178;2022-09-13T15:24:32;98034.98;;;19.47;59.48
41102;BME280;26845;50.190;19.178;2022-09-13T15:27:05;98037.98;;;19.45;59.51
41102;BME280;26845;50.190;19.178;2022-09-13T15:29:33;98034.55;;;19.45;59.95
41102;BME280;26845;50.190;19.178;2022-09-13T15:32:03;98033.33;;;19.43;59.97
41102;BME280;26845;50.190;19.178;2022-09-13T15:34:30;98037.14;;;19.41;59.97
41102;BME280;26845;50.190;19.178;2022-09-13T15:42:19;98035.27;;;19.28;60.67
41102;BME280;26845;50.190;19.178;2022-09-13T15:44:45;98035.44;;;19.22;60.54
41102;BME280;26845;50.190;19.178;2022-09-13T15:47:17;98035.80;;;19.17;60.66
41102;BME280;26845;50.190;19.178;2022-09-13T15:49:47;98028.95;;;19.18;60.72
41102;BME280;26845;50.190;19.178;2022-09-13T15:52:16;98032.39;;;19.21;61.04
41102;BME280;26845;50.190;19.178;2022-09-13T15:54:45;98034.42;;;19.24;61.25
41102;BME280;26845;50.190;19.178;2022-09-13T15:57:16;98031.66;;;19.27;60.92
41102;BME280;26845;50.190;19.178;2022-09-13T15:59:52;98026.20;;;19.25;61.26
41102;BME280;26845;50.190;19.178;2022-09-13T16:02:24;98024.79;;;19.25;61.47
41102;BME280;26845;50.190;19.178;2022-09-13T16:04:53;98018.52;;;19.18;61.03
41102;BME280;26845;50.190;19.178;2022-09-13T16:07:20;98024.91;;;19.15;61.55
41102;BME280;26845;50.190;19.178;2022-09-13T16:09:48;98020.30;;;19.13;61.31
41102;BME280;26845;50.190;19.178;2022-09-13T16:12:15;98023.06;;;19.09;61.25
41102;BME280;26845;50.190;19.178;2022-09-13T16:14:44;98024.28;;;19.08;61.61
41102;BME280;26845;50.190;19.178;2022-09-13T16:17:14;98031.91;;;19.04;61.64
41102;BME280;26845;50.190;19.178;2022-09-13T16:19:49;98030.26;;;19.00;61.76
41102;BME280;26845;50.190;19.178;2022-09-13T16:22:18;98026.22;;;18.97;61.81
41102;BME280;26845;50.190;19.178;2022-09-13T16:24:44;98033.48;;;18.98;62.36